Alamo, Tennessee
Current Conditions -  °F | °C
As of 1:53 AM on Thursday 29 Jan 2015 (Local Time) from KMKL Reporting Station
Broken Clouds Broken Clouds  
Wind Chill: 52°   Ceiling: 12000
Heat Index: 52°   Visibility: 10mi
Dew Point: 31°   Wind: 14mph
Humidity: 45%   Direction: 200°SSW
Pressure: 30.05"   Gusts: 22mph
Location:  35.78°N, 89.12°W
Report Text: KMKL 290753Z AUTO 20012G19KT 10SM BKN120 11/M01 A3005 RMK AO2 SLP176 T01111006
Loading
Personal Weather Stations






























Interactive Weather Map New forecast layout! Learn more

10-Day Weather Forecast

Advertisements
Track Severe Weather on mobile